Time;durP1;ratioP1;P1;durP2;ratioP2;P2;SDS_P1;SDS_P2;PMS_P1;PMS_P2;Temp;Humidity;BMP_temperature;BMP_pressure;BME280_temperature;BME280_humidity;BME280_pressure;Samples;Min_cycle;Max_cycle;Signal;HPM_P1;HPM_P2
2021/05/03 00:00:06;;;;;;;4.32;3.60;;;5.40;99.90;;;;;;5061167;28;20196;-85
2021/05/03 00:02:35;;;;;;;7.03;3.15;;;5.50;99.90;;;;;;5080276;28;20195;-84
2021/05/03 00:05:02;;;;;;;4.22;3.65;;;5.60;99.90;;;;;;5086796;28;20207;-84
2021/05/03 00:07:29;;;;;;;4.05;3.30;;;5.50;99.90;;;;;;5049839;28;20402;-84
2021/05/03 00:09:55;;;;;;;3.83;3.35;;;5.60;99.90;;;;;;5073640;28;20226;-84
2021/05/03 00:12:22;;;;;;;4.32;3.40;;;5.60;99.90;;;;;;5060568;28;20195;-84
2021/05/03 00:14:50;;;;;;;3.85;3.15;;;5.50;99.90;;;;;;5080834;28;20276;-85
2021/05/03 00:17:17;;;;;;;5.55;3.42;;;5.60;99.90;;;;;;5044607;28;20282;-84
2021/05/03 00:19:44;;;;;;;4.13;3.55;;;5.30;99.90;;;;;;5056921;28;20198;-85
2021/05/03 00:22:12;;;;;;;5.35;3.75;;;5.40;99.90;;;;;;5073259;28;20237;-81
2021/05/03 00:24:39;;;;;;;4.07;2.90;;;5.40;99.90;;;;;;5070016;28;20660;-84
2021/05/03 00:27:06;;;;;;;4.90;2.80;;;5.40;99.90;;;;;;5088088;28;20190;-83
2021/05/03 00:29:33;;;;;;;3.50;3.20;;;5.40;99.90;;;;;;5086375;28;20224;-83
2021/05/03 00:32:09;;;;;;;6.57;3.60;;;5.50;99.90;;;;;;5070461;28;20189;-83
2021/05/03 00:34:36;;;;;;;5.53;3.70;;;5.40;99.90;;;;;;5074628;28;20232;-83
2021/05/03 00:37:04;;;;;;;5.32;3.90;;;5.30;99.90;;;;;;5082665;28;20217;-83
2021/05/03 00:39:30;;;;;;;5.70;3.05;;;5.30;99.90;;;;;;5064495;28;20341;-83
2021/05/03 00:41:57;;;;;;;5.63;3.00;;;5.30;99.90;;;;;;5065461;28;20191;-83
2021/05/03 00:44:26;;;;;;;4.72;3.38;;;5.30;99.90;;;;;;5091298;28;20198;-82
2021/05/03 00:46:54;;;;;;;5.47;3.47;;;5.30;99.90;;;;;;5045548;28;20203;-82
2021/05/03 00:49:21;;;;;;;4.00;3.55;;;5.40;99.90;;;;;;5094756;28;20209;-84
2021/05/03 00:51:48;;;;;;;3.58;3.28;;;5.50;99.90;;;;;;5089863;28;20198;-83
2021/05/03 00:54:16;;;;;;;3.35;3.05;;;5.40;99.90;;;;;;5076255;28;20732;-83
2021/05/03 00:56:42;;;;;;;4.28;3.28;;;5.40;99.90;;;;;;5092228;28;20552;-82
2021/05/03 00:59:10;;;;;;;4.15;3.72;;;5.40;99.90;;;;;;5065483;28;20194;-83
2021/05/03 01:01:36;;;;;;;3.60;3.30;;;5.40;99.90;;;;;;5064608;28;20194;-83
2021/05/03 01:04:03;;;;;;;6.65;2.92;;;5.40;99.90;;;;;;5080578;28;20239;-83
2021/05/03 01:06:31;;;;;;;6.90;4.00;;;5.40;99.90;;;;;;5069456;28;20210;-85
2021/05/03 01:08:58;;;;;;;3.55;3.25;;;5.30;99.90;;;;;;5080872;28;20245;-83
2021/05/03 01:11:26;;;;;;;3.70;3.38;;;5.20;99.90;;;;;;5075929;28;20193;-83
2021/05/03 01:13:52;;;;;;;4.95;3.80;;;5.10;99.90;;;;;;5065505;28;20297;-83
2021/05/03 01:16:19;;;;;;;4.47;3.15;;;5.10;99.90;;;;;;5087628;28;20217;-84
2021/05/03 01:18:46;;;;;;;4.85;3.95;;;5.00;99.90;;;;;;5053254;28;20704;-84
2021/05/03 01:21:22;;;;;;;3.80;3.25;;;4.90;99.90;;;;;;5079889;28;20202;-83
2021/05/03 01:23:50;;;;;;;4.88;3.05;;;4.90;99.90;;;;;;5034813;28;20210;-83
2021/05/03 01:26:17;;;;;;;8.65;3.47;;;4.90;99.90;;;;;;5069762;28;20276;-84
2021/05/03 01:28:44;;;;;;;4.53;4.13;;;4.80;99.90;;;;;;5083116;28;20229;-83
2021/05/03 01:31:11;;;;;;;5.03;3.95;;;4.80;99.90;;;;;;5077850;28;20241;-83
2021/05/03 01:33:38;;;;;;;4.15;3.75;;;4.80;99.90;;;;;;5083495;28;20193;-83
2021/05/03 01:36:05;;;;;;;4.25;3.67;;;4.80;99.90;;;;;;5080838;28;20215;-83
2021/05/03 01:38:32;;;;;;;3.58;3.25;;;4.80;99.90;;;;;;5103609;28;20186;-84
2021/05/03 01:41:00;;;;;;;3.53;3.20;;;4.80;99.90;;;;;;5094574;28;20254;-83
2021/05/03 01:43:28;;;;;;;6.18;3.17;;;4.80;99.90;;;;;;5068226;28;20237;-84
2021/05/03 01:45:58;;;;;;;5.97;3.90;;;4.70;99.90;;;;;;5081879;28;20301;-84
2021/05/03 01:48:27;;;;;;;4.28;3.22;;;4.70;99.90;;;;;;5103198;28;20706;-84
2021/05/03 01:50:54;;;;;;;4.78;3.70;;;4.70;99.90;;;;;;5084706;28;20684;-83
2021/05/03 01:53:21;;;;;;;3.95;3.65;;;4.70;99.90;;;;;;5045350;28;20783;-82
2021/05/03 01:55:52;;;;;;;4.57;3.15;;;4.70;99.90;;;;;;5045178;28;20227;-84
2021/05/03 01:58:19;;;;;;;4.95;4.03;;;4.50;99.90;;;;;;5082664;28;20273;-84
2021/05/03 02:00:46;;;;;;;6.25;4.03;;;4.50;99.90;;;;;;5077917;28;20219;-84
2021/05/03 02:03:20;;;;;;;6.30;4.30;;;4.40;99.90;;;;;;5100580;28;20275;-83
2021/05/03 02:06:00;;;;;;;5.93;4.22;;;4.40;99.90;;;;;;5069493;28;20226;-83
2021/05/03 02:08:31;;;;;;;4.57;3.97;;;4.40;99.90;;;;;;5089975;28;20226;-86
2021/05/03 02:10:59;;;;;;;3.58;3.28;;;4.40;99.90;;;;;;5061969;28;20203;-83
2021/05/03 02:13:26;;;;;;;6.22;3.53;;;4.30;99.90;;;;;;5087574;28;20324;-82
2021/05/03 02:15:53;;;;;;;3.85;3.47;;;4.10;99.90;;;;;;5083178;28;20217;-83
2021/05/03 02:18:20;;;;;;;3.70;3.40;;;4.20;99.90;;;;;;5092935;28;20213;-82
2021/05/03 02:20:47;;;;;;;5.32;4.10;;;4.10;99.90;;;;;;5079550;28;20194;-85
2021/05/03 02:23:14;;;;;;;5.70;3.58;;;4.10;99.90;;;;;;5077921;28;20210;-84
2021/05/03 02:25:42;;;;;;;6.25;4.15;;;4.10;99.90;;;;;;5048883;28;20222;-84
2021/05/03 02:28:10;;;;;;;5.30;4.43;;;4.00;99.90;;;;;;5067765;28;20609;-83
2021/05/03 02:30:36;;;;;;;4.60;3.30;;;4.00;99.90;;;;;;5068062;28;20230;-84
2021/05/03 02:33:04;;;;;;;10.02;3.78;;;4.10;99.90;;;;;;5082462;28;20231;-83
2021/05/03 02:35:33;;;;;;;6.57;4.68;;;4.00;99.90;;;;;;5084188;28;20221;-83
2021/05/03 02:38:02;;;;;;;5.90;4.47;;;4.00;99.90;;;;;;5097796;28;20190;-83
2021/05/03 02:40:30;;;;;;;3.50;3.22;;;4.00;99.90;;;;;;5105422;28;20266;-83
2021/05/03 02:42:59;;;;;;;6.75;4.05;;;4.00;99.90;;;;;;5086793;28;20243;-84
2021/05/03 02:45:28;;;;;;;4.10;3.70;;;4.00;99.90;;;;;;5075353;28;20605;-83
2021/05/03 02:47:55;;;;;;;6.68;4.03;;;3.90;99.90;;;;;;5083325;28;20198;-83
2021/05/03 02:50:24;;;;;;;5.00;4.50;;;3.90;99.90;;;;;;5089528;28;20213;-83
2021/05/03 02:52:53;;;;;;;4.55;3.67;;;3.90;99.90;;;;;;5083496;28;20198;-84
2021/05/03 02:55:21;;;;;;;6.40;3.78;;;3.90;99.90;;;;;;5078600;28;20229;-83
2021/05/03 02:57:50;;;;;;;4.43;3.90;;;3.90;99.90;;;;;;5071763;28;20195;-84
2021/05/03 03:00:23;;;;;;;4.68;4.28;;;3.80;99.90;;;;;;5083698;28;20577;-84
2021/05/03 03:02:51;;;;;;;4.93;4.43;;;3.80;99.90;;;;;;5055793;28;20233;-85
2021/05/03 03:05:17;;;;;;;6.00;4.03;;;3.80;99.90;;;;;;5075796;28;20636;-85
2021/05/03 03:07:44;;;;;;;5.20;4.63;;;3.80;99.90;;;;;;5088312;28;20194;-84
2021/05/03 03:10:11;;;;;;;5.35;4.15;;;3.80;99.90;;;;;;5085171;28;20255;-84
2021/05/03 03:12:39;;;;;;;7.30;4.43;;;3.80;99.90;;;;;;5082353;28;20198;-84
2021/05/03 03:15:09;;;;;;;4.82;3.75;;;3.70;99.90;;;;;;5073560;28;20285;-84
2021/05/03 03:17:36;;;;;;;4.93;4.43;;;3.80;99.90;;;;;;5091100;28;20581;-83
2021/05/03 03:20:04;;;;;;;6.35;3.95;;;3.80;99.90;;;;;;5093714;28;20186;-84
2021/05/03 03:22:31;;;;;;;5.10;4.00;;;3.80;99.90;;;;;;5059732;28;20201;-84
2021/05/03 03:24:58;;;;;;;6.60;4.85;;;3.80;99.90;;;;;;5092822;28;20209;-84
2021/05/03 03:27:25;;;;;;;5.97;4.55;;;3.70;99.90;;;;;;5065770;28;20258;-84
2021/05/03 03:29:52;;;;;;;5.45;4.00;;;3.70;99.90;;;;;;5064942;28;20222;-83
2021/05/03 03:32:18;;;;;;;5.00;4.28;;;3.80;99.90;;;;;;5094429;28;20297;-84
2021/05/03 03:34:45;;;;;;;7.45;4.65;;;3.60;99.90;;;;;;5074889;28;20786;-86
2021/05/03 03:37:12;;;;;;;4.10;3.38;;;3.70;99.90;;;;;;5083286;28;20198;-84
2021/05/03 03:39:39;;;;;;;5.82;4.40;;;3.70;99.90;;;;;;5070045;28;20203;-85
2021/05/03 03:42:06;;;;;;;6.47;4.88;;;3.60;99.90;;;;;;5082959;28;20197;-84
2021/05/03 03:44:33;;;;;;;5.88;5.03;;;3.60;99.90;;;;;;5091114;28;20210;-84
2021/05/03 03:47:00;;;;;;;8.52;4.65;;;3.60;99.90;;;;;;5062563;28;20209;-84
2021/05/03 03:49:28;;;;;;;4.85;4.35;;;3.60;99.90;;;;;;5076817;28;20234;-82
2021/05/03 03:51:55;;;;;;;4.93;4.10;;;3.70;99.90;;;;;;5078944;28;20198;-84
2021/05/03 03:54:23;;;;;;;6.65;5.75;;;3.60;99.90;;;;;;5076434;28;20186;-83
2021/05/03 03:56:50;;;;;;;6.18;4.50;;;3.60;99.90;;;;;;5051471;28;20206;-84
2021/05/03 03:59:16;;;;;;;5.22;4.13;;;3.50;99.90;;;;;;5069961;28;20198;-84
2021/05/03 04:01:45;;;;;;;5.53;4.47;;;3.50;99.90;;;;;;5088529;28;20289;-84
2021/05/03 04:04:15;;;;;;;10.52;4.80;;;3.60;99.90;;;;;;5060624;28;20206;-84
2021/05/03 04:06:49;;;;;;;5.28;3.97;;;3.50;99.90;;;;;;5057522;28;20191;-84
2021/05/03 04:09:24;;;;;;;6.63;5.28;;;3.50;99.90;;;;;;5058827;28;20271;-83
2021/05/03 04:12:11;;;;;;;5.55;4.47;;;3.40;99.90;;;;;;5065240;28;20185;-83
2021/05/03 04:23:12;;;;;;;5.63;4.60;;;3.60;99.90;;;;;;5064458;28;20197;-84
2021/05/03 04:25:40;;;;;;;5.20;4.65;;;3.60;99.90;;;;;;5100251;28;20304;-83
2021/05/03 04:28:09;;;;;;;6.65;5.63;;;3.60;99.90;;;;;;5070414;28;20203;-84
2021/05/03 04:30:36;;;;;;;6.75;5.35;;;3.60;99.90;;;;;;5049802;28;20285;-84
2021/05/03 04:33:03;;;;;;;6.45;5.63;;;3.50;99.90;;;;;;5074276;28;20740;-84
2021/05/03 04:35:30;;;;;;;7.28;5.90;;;3.50;99.90;;;;;;5097422;28;20221;-83
2021/05/03 04:37:57;;;;;;;6.43;5.78;;;3.60;99.90;;;;;;5073276;28;20273;-84
2021/05/03 04:40:24;;;;;;;6.88;6.07;;;3.60;99.90;;;;;;5065425;28;20183;-84
2021/05/03 04:42:51;;;;;;;8.32;6.55;;;3.50;99.90;;;;;;5093961;28;20194;-84
2021/05/03 04:45:18;;;;;;;7.82;6.90;;;3.60;99.90;;;;;;5093927;28;20253;-84
2021/05/03 04:47:47;;;;;;;8.82;7.22;;;3.60;99.90;;;;;;5060130;28;20331;-85
2021/05/03 04:50:14;;;;;;;7.47;6.47;;;3.70;99.90;;;;;;5064142;28;20234;-83
2021/05/03 04:52:41;;;;;;;8.95;6.63;;;3.80;99.90;;;;;;5068844;28;20278;-84
2021/05/03 04:55:09;;;;;;;7.97;6.43;;;3.90;99.90;;;;;;5085833;28;20222;-86
2021/05/03 04:57:36;;;;;;;11.02;7.72;;;3.90;99.90;;;;;;5103613;28;20198;-83
2021/05/03 05:00:03;;;;;;;10.23;6.85;;;4.00;99.90;;;;;;5081073;28;20198;-84
2021/05/03 05:02:31;;;;;;;7.57;6.78;;;4.10;99.90;;;;;;5105364;28;20198;-85
2021/05/03 05:05:00;;;;;;;14.35;7.43;;;4.20;99.90;;;;;;5053339;28;20225;-84
2021/05/03 05:07:28;;;;;;;8.60;6.28;;;4.30;99.90;;;;;;5099382;28;20258;-84
2021/05/03 05:09:56;;;;;;;7.63;6.68;;;4.40;99.90;;;;;;5067564;28;20234;-83
2021/05/03 05:12:23;;;;;;;9.50;6.65;;;4.40;99.90;;;;;;5071797;28;20202;-86
2021/05/03 05:14:50;;;;;;;7.43;6.55;;;4.50;99.90;;;;;;5095276;28;20215;-84
2021/05/03 05:17:17;;;;;;;10.27;6.78;;;4.60;99.90;;;;;;5063358;28;20209;-84
2021/05/03 05:19:44;;;;;;;7.82;5.95;;;4.70;99.90;;;;;;5079736;28;20209;-84
2021/05/03 05:22:12;;;;;;;6.75;6.03;;;4.80;99.90;;;;;;5089323;28;20312;-84
2021/05/03 05:24:38;;;;;;;6.43;5.78;;;4.80;99.90;;;;;;5071213;28;20211;-86
2021/05/03 05:27:06;;;;;;;6.40;5.75;;;5.10;99.90;;;;;;5099571;28;20178;-83
2021/05/03 05:29:33;;;;;;;8.43;6.22;;;5.10;99.90;;;;;;5109003;28;20214;-83
2021/05/03 05:32:00;;;;;;;6.03;5.43;;;5.00;99.90;;;;;;5097239;28;20190;-88
2021/05/03 05:34:27;;;;;;;6.20;5.35;;;5.20;99.90;;;;;;5084041;28;20222;-86
2021/05/03 05:36:55;;;;;;;7.63;5.55;;;5.40;99.90;;;;;;5083433;28;20190;-85
2021/05/03 05:39:22;;;;;;;11.15;6.40;;;5.60;99.90;;;;;;5083565;28;20191;-84
2021/05/03 05:41:48;;;;;;;6.35;4.82;;;5.50;99.90;;;;;;5108215;28;20187;-88
2021/05/03 05:44:15;;;;;;;6.68;5.70;;;5.50;99.90;;;;;;5089456;28;20186;-88
2021/05/03 05:46:44;;;;;;;6.85;5.35;;;5.50;99.90;;;;;;5087914;28;20182;-87
2021/05/03 05:49:10;;;;;;;5.75;5.15;;;5.70;99.90;;;;;;5103582;28;20226;-87
2021/05/03 05:51:39;;;;;;;12.77;5.63;;;5.80;99.90;;;;;;5084919;28;20186;-90
2021/05/03 05:54:08;;;;;;;6.60;5.60;;;5.80;99.90;;;;;;5082934;28;20195;-90
2021/05/03 05:56:35;;;;;;;5.82;5.20;;;6.00;99.90;;;;;;5113009;28;20178;-88
2021/05/03 05:59:02;;;;;;;7.03;5.25;;;6.10;99.90;;;;;;5121282;28;20261;-85
2021/05/03 06:01:29;;;;;;;5.63;5.13;;;6.10;99.90;;;;;;5121347;28;20198;-88
2021/05/03 06:03:55;;;;;;;7.72;4.07;;;6.50;99.90;;;;;;5077516;28;20186;-88
2021/05/03 06:06:22;;;;;;;5.43;4.93;;;6.60;99.90;;;;;;5103090;28;20213;-88
2021/05/03 06:08:49;;;;;;;7.65;5.43;;;6.60;99.90;;;;;;5120937;28;20182;-87
2021/05/03 06:11:16;;;;;;;7.70;5.43;;;6.50;99.90;;;;;;5120752;28;20178;-89
2021/05/03 06:13:43;;;;;;;5.35;4.95;;;6.50;99.90;;;;;;5103076;28;20193;-88
2021/05/03 06:16:10;;;;;;;5.88;5.05;;;6.50;99.90;;;;;;5103101;28;20284;-89
2021/05/03 06:18:37;;;;;;;5.45;4.78;;;6.50;99.90;;;;;;5092687;28;20174;-87
2021/05/03 06:21:04;;;;;;;8.77;4.65;;;6.40;99.90;;;;;;5062610;28;20222;-88
2021/05/03 06:23:33;;;;;;;4.72;4.35;;;6.50;99.90;;;;;;5070739;28;20215;-90
2021/05/03 06:25:59;;;;;;;6.03;4.00;;;6.60;99.90;;;;;;5092667;28;20222;-89
2021/05/03 06:28:27;;;;;;;5.57;4.50;;;6.60;99.90;;;;;;5099179;28;20228;-91
2021/05/03 06:30:56;;;;;;;4.60;4.20;;;6.90;99.90;;;;;;5081297;28;20273;-84
2021/05/03 06:33:24;;;;;;;5.10;4.68;;;7.00;99.90;;;;;;5074997;28;20225;-83
2021/05/03 06:35:51;;;;;;;7.72;4.60;;;6.90;99.90;;;;;;5096331;28;20218;-85
2021/05/03 06:38:18;;;;;;;5.78;4.47;;;6.90;99.90;;;;;;5095786;28;20201;-83
2021/05/03 06:40:55;;;;;;;5.00;4.35;;;6.80;99.90;;;;;;5094486;28;20194;-84
2021/05/03 06:43:27;;;;;;;7.78;4.82;;;6.70;99.90;;;;;;5106499;28;20194;-86
2021/05/03 06:45:58;;;;;;;7.97;5.28;;;6.80;99.90;;;;;;5087459;28;20271;-85
2021/05/03 06:48:26;;;;;;;5.90;5.38;;;7.00;99.90;;;;;;5093271;28;20277;-81
2021/05/03 06:50:53;;;;;;;7.30;5.25;;;7.10;99.90;;;;;;5098001;28;20213;-85
2021/05/03 06:53:20;;;;;;;7.13;5.28;;;7.20;99.90;;;;;;5077033;28;20226;-83
2021/05/03 06:55:47;;;;;;;5.60;5.07;;;7.00;99.90;;;;;;5061290;22;20716;-42
2021/05/03 06:58:15;;;;;;;10.90;5.97;;;7.20;99.90;;;;;;5036906;28;20196;-41
2021/05/03 07:00:42;;;;;;;7.25;5.05;;;6.90;99.90;;;;;;5030075;28;20200;-42
2021/05/03 07:03:11;;;;;;;4.88;4.40;;;6.80;99.90;;;;;;5030541;28;20686;-42
2021/05/03 07:05:39;;;;;;;5.82;5.32;;;6.60;99.90;;;;;;5019531;28;20271;-42
2021/05/03 07:08:07;;;;;;;10.20;5.50;;;6.60;99.90;;;;;;5028562;22;20207;-40
2021/05/03 07:10:35;;;;;;;6.22;5.47;;;6.50;99.90;;;;;;5050778;28;20225;-41
2021/05/03 07:13:02;;;;;;;8.73;6.22;;;6.30;99.90;;;;;;5051074;28;20253;-40
2021/05/03 07:15:30;;;;;;;7.00;6.30;;;6.40;99.90;;;;;;5051352;28;20203;-40
2021/05/03 07:17:57;;;;;;;7.85;6.60;;;6.40;99.90;;;;;;5063019;28;20217;-41
2021/05/03 07:20:24;;;;;;;6.78;6.13;;;6.40;99.90;;;;;;5038408;28;20187;-41
2021/05/03 07:22:51;;;;;;;11.35;8.35;;;6.60;99.90;;;;;;5045981;28;20276;-41
2021/05/03 07:25:18;;;;;;;6.10;5.50;;;6.80;99.90;;;;;;5045752;28;20204;-40
2021/05/03 07:27:45;;;;;;;7.50;6.80;;;6.80;99.90;;;;;;5042424;28;20210;-40
2021/05/03 07:30:13;;;;;;;9.20;5.53;;;6.70;99.90;;;;;;5038442;28;20468;-41
2021/05/03 07:32:40;;;;;;;6.28;5.78;;;6.70;99.90;;;;;;5043189;28;20201;-41
2021/05/03 07:35:10;;;;;;;10.25;5.32;;;6.70;99.90;;;;;;5049488;28;20306;-40
2021/05/03 07:37:38;;;;;;;9.55;6.13;;;6.90;99.90;;;;;;5028825;28;20277;-40
2021/05/03 07:40:06;;;;;;;6.10;5.57;;;6.80;99.90;;;;;;5048631;28;20192;-40
2021/05/03 07:42:33;;;;;;;7.97;4.95;;;6.80;99.90;;;;;;5041988;28;20199;-40
2021/05/03 07:44:59;;;;;;;5.25;4.75;;;6.90;99.90;;;;;;5046658;28;20199;-40
2021/05/03 07:47:27;;;;;;;6.10;4.75;;;6.80;99.90;;;;;;5045231;28;20191;-40
2021/05/03 07:49:54;;;;;;;4.50;4.20;;;6.70;99.90;;;;;;5048944;28;20639;-40
2021/05/03 07:52:22;;;;;;;4.85;4.45;;;6.70;99.90;;;;;;5049944;28;20582;-40
2021/05/03 07:54:50;;;;;;;3.47;3.17;;;6.70;99.90;;;;;;5041880;28;20203;-40
2021/05/03 07:57:17;;;;;;;6.10;4.35;;;6.60;99.90;;;;;;5045273;28;20191;-40
2021/05/03 07:59:44;;;;;;;3.67;3.38;;;6.70;99.90;;;;;;5019608;28;20290;-40
2021/05/03 08:02:11;;;;;;;4.53;4.13;;;6.70;99.90;;;;;;5033903;28;20204;-41
2021/05/03 08:04:37;;;;;;;4.25;3.83;;;6.70;99.90;;;;;;5042039;28;20214;-41
2021/05/03 08:07:04;;;;;;;4.60;4.15;;;6.90;99.90;;;;;;5046120;28;20202;-41
2021/05/03 08:09:31;;;;;;;4.03;3.63;;;7.30;99.90;;;;;;5041374;28;20298;-40
2021/05/03 08:11:59;;;;;;;5.32;4.63;;;7.40;99.90;;;;;;5038452;28;20507;-40
2021/05/03 08:14:26;;;;;;;4.85;3.70;;;7.50;99.90;;;;;;5043846;28;20188;-41
2021/05/03 08:16:56;;;;;;;4.47;4.07;;;7.70;99.90;;;;;;5035395;28;20208;-41
2021/05/03 08:19:22;;;;;;;5.07;4.68;;;7.60;99.90;;;;;;5046166;28;20664;-40
2021/05/03 08:21:49;;;;;;;5.47;4.93;;;7.60;99.90;;;;;;5026993;28;20195;-41
2021/05/03 08:24:16;;;;;;;4.43;3.92;;;7.80;99.90;;;;;;5049834;28;20192;-40
2021/05/03 08:26:43;;;;;;;8.88;4.57;;;7.90;99.90;;;;;;5037345;28;20723;-41
2021/05/03 08:29:10;;;;;;;5.32;4.88;;;8.20;99.90;;;;;;5070093;28;20253;-41
2021/05/03 08:31:37;;;;;;;5.47;4.88;;;8.30;99.90;;;;;;5070623;28;20194;-41
2021/05/03 08:34:04;;;;;;;4.80;4.40;;;8.50;99.90;;;;;;5069774;28;20203;-41
2021/05/03 08:36:31;;;;;;;6.28;5.70;;;8.60;99.90;;;;;;5066194;28;20226;-41
2021/05/03 08:38:58;;;;;;;5.72;4.97;;;8.50;99.90;;;;;;5031404;28;20311;-40
2021/05/03 08:41:25;;;;;;;5.85;5.25;;;8.30;99.90;;;;;;5020609;28;20282;-40
2021/05/03 08:43:53;;;;;;;7.03;6.20;;;8.50;99.90;;;;;;5037252;28;20462;-40
2021/05/03 08:46:27;;;;;;;7.60;5.55;;;8.50;99.90;;;;;;5040302;28;20574;-40
2021/05/03 08:49:00;;;;;;;8.30;5.93;;;8.80;99.90;;;;;;5038004;28;20231;-41
2021/05/03 08:51:38;;;;;;;7.65;5.78;;;8.90;99.90;;;;;;5070067;28;20244;-41
2021/05/03 08:54:10;;;;;;;5.70;5.10;;;8.70;99.90;;;;;;5057063;28;20610;-41
2021/05/03 08:56:37;;;;;;;7.68;6.30;;;8.90;99.90;;;;;;5029958;28;20200;-41
2021/05/03 08:59:04;;;;;;;6.35;5.75;;;8.90;99.90;;;;;;5031691;28;20515;-42
2021/05/03 09:01:33;;;;;;;6.78;6.18;;;9.20;99.90;;;;;;5055395;28;20257;-41
2021/05/03 09:03:59;;;;;;;9.10;6.00;;;9.30;99.90;;;;;;5058566;28;20204;-41
2021/05/03 09:06:26;;;;;;;6.25;4.55;;;9.50;99.90;;;;;;5059201;28;20205;-41
2021/05/03 09:09:05;;;;;;;7.35;4.55;;;9.50;99.90;;;;;;5046465;28;20381;-42
2021/05/03 09:11:33;;;;;;;6.05;5.45;;;9.50;99.90;;;;;;5049508;28;20203;-40
2021/05/03 09:14:17;;;;;;;10.02;5.38;;;9.70;99.90;;;;;;5049529;28;20325;-41
2021/05/03 09:16:46;;;;;;;7.20;5.20;;;10.30;99.90;;;;;;5053112;28;20231;-40
2021/05/03 09:19:14;;;;;;;5.47;4.97;;;10.60;99.90;;;;;;5052769;28;20294;-41
2021/05/03 09:21:41;;;;;;;6.22;4.68;;;10.90;99.90;;;;;;5053170;28;20202;-41
2021/05/03 09:24:12;;;;;;;7.65;5.13;;;10.80;99.90;;;;;;5052885;28;20619;-41
2021/05/03 09:26:46;;;;;;;5.40;4.90;;;10.70;99.90;;;;;;5052918;28;20195;-42
2021/05/03 09:29:37;;;;;;;6.00;5.03;;;10.60;99.90;;;;;;5052592;28;20314;-41
2021/05/03 09:32:11;;;;;;;7.35;4.45;;;11.00;99.90;;;;;;5035145;28;20561;-41
2021/05/03 09:34:40;;;;;;;6.60;4.47;;;11.30;99.90;;;;;;5052813;28;20209;-42
2021/05/03 09:37:21;;;;;;;5.88;5.28;;;11.30;99.90;;;;;;5052737;28;20758;-41
2021/05/03 09:39:55;;;;;;;4.53;3.75;;;11.50;99.90;;;;;;5052440;28;20268;-41
2021/05/03 09:42:23;;;;;;;3.97;3.58;;;11.70;99.90;;;;;;5034532;28;20246;-41
2021/05/03 09:45:07;;;;;;;7.97;3.80;;;12.10;99.90;;;;;;5052694;28;20231;-41
2021/05/03 09:47:36;;;;;;;5.03;4.03;;;11.90;99.90;;;;;;5052581;28;20191;-41
2021/05/03 09:50:10;;;;;;;5.85;3.92;;;11.60;99.90;;;;;;5052183;28;20226;-42
2021/05/03 09:52:37;;;;;;;4.57;3.90;;;11.90;99.90;;;;;;5052743;28;20199;-41
2021/05/03 09:55:28;;;;;;;4.03;3.63;;;11.60;99.90;;;;;;5052661;28;20195;-42
2021/05/03 09:58:11;;;;;;;5.32;4.00;;;11.40;99.90;;;;;;5052167;28;20200;-41
2021/05/03 10:00:40;;;;;;;4.65;4.22;;;11.60;99.90;;;;;;5041590;28;20278;-41
2021/05/03 10:03:38;;;;;;;5.15;3.70;;;11.80;99.90;;;;;;5032621;28;20199;-42
2021/05/03 10:06:07;;;;;;;4.43;4.03;;;12.20;99.90;;;;;;5044609;28;20265;-41
2021/05/03 10:08:35;;;;;;;4.25;3.85;;;12.20;99.90;;;;;;5042269;28;20227;-42
2021/05/03 10:11:04;;;;;;;4.50;4.10;;;12.50;99.90;;;;;;5037477;28;20224;-41
2021/05/03 10:13:33;;;;;;;4.97;4.43;;;12.40;99.90;;;;;;5036630;28;20198;-41
2021/05/03 10:16:00;;;;;;;5.03;4.43;;;12.50;99.90;;;;;;5051493;28;20207;-41
2021/05/03 10:18:28;;;;;;;5.72;5.20;;;12.60;99.90;;;;;;5051645;28;20225;-41
2021/05/03 10:20:57;;;;;;;4.65;4.25;;;12.90;99.90;;;;;;5052110;28;20194;-42
2021/05/03 10:23:25;;;;;;;6.43;5.82;;;12.70;99.90;;;;;;5051814;28;20278;-41
2021/05/03 10:25:57;;;;;;;5.20;4.70;;;12.60;99.90;;;;;;5048937;28;20688;-41
2021/05/03 10:28:24;;;;;;;5.35;4.95;;;12.80;99.90;;;;;;5053665;28;20257;-41
2021/05/03 10:30:55;;;;;;;6.70;5.18;;;12.70;99.90;;;;;;5041366;28;20310;-42
2021/05/03 10:33:34;;;;;;;6.53;5.60;;;12.40;99.90;;;;;;5037870;28;20203;-41
2021/05/03 10:36:02;;;;;;;5.43;4.93;;;12.30;99.90;;;;;;5043819;28;20727;-41
2021/05/03 10:38:36;;;;;;;4.97;4.57;;;12.30;99.90;;;;;;5039800;28;20302;-42
2021/05/03 10:41:19;;;;;;;5.32;4.82;;;12.40;99.90;;;;;;5040631;28;20192;-42
2021/05/03 10:43:46;;;;;;;6.10;5.20;;;12.50;99.90;;;;;;5046768;28;20202;-41
2021/05/03 10:49:34;;;;;;;6.45;5.43;;;12.70;99.90;;;;;;5032206;28;20231;-41
2021/05/03 10:52:04;;;;;;;6.57;5.88;;;12.90;99.90;;;;;;5040200;28;20286;-42
2021/05/03 10:54:39;;;;;;;8.15;5.63;;;13.10;99.90;;;;;;5047965;28;20211;-42
2021/05/03 10:57:07;;;;;;;5.35;4.95;;;13.50;99.90;;;;;;5045904;28;20617;-38
2021/05/03 10:59:48;;;;;;;6.13;5.57;;;13.80;99.90;;;;;;5033007;28;20702;-41
2021/05/03 11:02:17;;;;;;;7.75;5.18;;;13.50;99.90;;;;;;5040409;28;20298;-39
2021/05/03 11:05:15;;;;;;;9.88;5.82;;;13.60;99.90;;;;;;5041827;28;20200;-40
2021/05/03 11:08:27;;;;;;;10.40;5.55;;;13.60;99.90;;;;;;5035529;28;20677;-40
2021/05/03 11:11:10;;;;;;;5.55;5.15;;;13.30;99.90;;;;;;5041859;28;20226;-40
2021/05/03 11:13:56;;;;;;;6.25;5.65;;;13.10;99.90;;;;;;5035457;28;20279;-42
2021/05/03 11:16:52;;;;;;;7.78;6.35;;;13.20;99.90;;;;;;5043394;28;20196;-40
2021/05/03 11:19:36;;;;;;;10.38;4.85;;;13.00;99.90;;;;;;5048632;28;20224;-40
2021/05/03 11:22:04;;;;;;;6.03;5.43;;;13.00;99.90;;;;;;5051290;28;20207;-40
2021/05/03 11:24:33;;;;;;;7.55;5.63;;;13.10;99.90;;;;;;5035597;28;20200;-40
2021/05/03 11:27:03;;;;;;;6.53;5.75;;;13.30;99.90;;;;;;5043781;28;20397;-40
2021/05/03 11:29:38;;;;;;;6.03;5.28;;;13.40;99.90;;;;;;5021430;28;20233;-41
2021/05/03 11:32:06;;;;;;;6.72;6.00;;;13.50;99.90;;;;;;5034721;28;20195;-40
2021/05/03 11:34:37;;;;;;;7.35;5.85;;;13.70;99.90;;;;;;5038948;28;20555;-40
2021/05/03 11:37:06;;;;;;;5.28;4.78;;;13.80;99.90;;;;;;5044997;28;20274;-41
2021/05/03 11:39:43;;;;;;;6.93;5.55;;;13.40;99.90;;;;;;5042005;28;20273;-41
2021/05/03 11:44:56;;;;;;;8.32;6.10;;;13.30;99.90;;;;;;5048252;28;20317;-41
2021/05/03 11:47:26;;;;;;;7.82;5.40;;;13.40;99.90;;;;;;5053050;28;20416;-40
2021/05/03 11:49:53;;;;;;;6.25;5.65;;;13.20;99.90;;;;;;5038125;28;20215;-40
2021/05/03 11:52:28;;;;;;;6.90;6.20;;;13.40;99.90;;;;;;5039199;28;20200;-40
2021/05/03 11:55:05;;;;;;;6.97;5.22;;;13.40;99.90;;;;;;5038631;28;20202;-40
2021/05/03 11:57:33;;;;;;;5.57;5.05;;;13.50;99.90;;;;;;5041387;28;20191;-40
2021/05/03 12:00:01;;;;;;;6.90;4.75;;;13.70;99.90;;;;;;5040155;28;20223;-40
2021/05/03 12:02:32;;;;;;;7.53;5.68;;;13.50;99.90;;;;;;5035138;28;20690;-40
2021/05/03 12:04:59;;;;;;;6.13;5.55;;;13.20;99.90;;;;;;5040329;28;20195;-41
2021/05/03 12:07:29;;;;;;;8.63;7.78;;;13.30;99.90;;;;;;5044765;28;20714;-40
2021/05/03 12:10:01;;;;;;;6.88;5.40;;;13.30;99.90;;;;;;5039226;28;20223;-40
2021/05/03 12:12:33;;;;;;;6.63;6.03;;;13.60;99.90;;;;;;5037890;28;20200;-40
2021/05/03 12:15:00;;;;;;;5.78;5.20;;;13.60;99.90;;;;;;5043836;28;20703;-40
2021/05/03 12:17:30;;;;;;;6.10;5.18;;;13.70;99.90;;;;;;5045547;28;20202;-40
2021/05/03 12:20:00;;;;;;;7.68;6.15;;;13.80;99.90;;;;;;5036809;28;20219;-40
2021/05/03 12:22:26;;;;;;;4.72;4.32;;;13.80;99.90;;;;;;5024705;28;20194;-41
2021/05/03 12:24:59;;;;;;;4.43;4.03;;;13.40;99.90;;;;;;5042821;28;20195;-40
2021/05/03 12:27:29;;;;;;;8.07;4.63;;;13.50;99.90;;;;;;5060564;22;20223;-43
2021/05/03 12:29:58;;;;;;;8.15;5.35;;;14.00;99.90;;;;;;5069010;28;20215;-45
2021/05/03 12:32:30;;;;;;;5.82;4.90;;;14.40;99.90;;;;;;5065994;28;20594;-42
2021/05/03 12:34:56;;;;;;;7.28;4.93;;;14.80;99.90;;;;;;5065366;28;20199;-43
2021/05/03 12:37:24;;;;;;;5.43;4.93;;;14.90;99.90;;;;;;5048178;28;20214;-42
2021/05/03 12:40:07;;;;;;;5.10;4.70;;;15.10;99.90;;;;;;5068183;28;20222;-42
2021/05/03 12:42:39;;;;;;;7.15;5.90;;;15.00;99.90;;;;;;5041296;28;20542;-42
2021/05/03 12:45:21;;;;;;;6.93;4.90;;;14.80;99.90;;;;;;5066716;28;20203;-41
2021/05/03 12:47:57;;;;;;;7.70;4.72;;;15.50;99.90;;;;;;5056297;28;20231;-42
2021/05/03 12:50:29;;;;;;;7.57;4.60;;;15.20;99.90;;;;;;5053475;28;20279;-44
2021/05/03 12:53:07;;;;;;;5.15;4.57;;;15.00;99.90;;;;;;5068475;28;20678;-40
2021/05/03 12:55:50;;;;;;;5.35;4.90;;;14.30;99.90;;;;;;5053197;28;20207;-41
2021/05/03 12:58:21;;;;;;;5.22;4.28;;;14.50;99.90;;;;;;5052540;28;20748;-42
2021/05/03 13:01:02;;;;;;;5.03;4.50;;;15.10;99.90;;;;;;5053398;28;20230;-40
2021/05/03 13:03:38;;;;;;;4.43;4.03;;;15.40;99.90;;;;;;5050519;28;20198;-41
2021/05/03 13:06:14;;;;;;;4.82;4.35;;;15.80;99.90;;;;;;5052219;28;20339;-43
2021/05/03 13:08:54;;;;;;;4.88;4.25;;;16.10;99.90;;;;;;5052066;28;20223;-42
2021/05/03 13:11:49;;;;;;;5.15;4.25;;;16.40;99.90;;;;;;5051645;28;20230;-43
2021/05/03 13:29:43;;;;;;;4.50;4.10;;;15.80;99.90;;;;;;5053110;28;20282;-43
2021/05/03 13:32:13;;;;;;;7.75;4.75;;;15.50;99.90;;;;;;5050652;28;20233;-44
2021/05/03 13:34:41;;;;;;;5.40;4.85;;;15.20;99.90;;;;;;5050354;28;20601;-42